createdAt,value
2023-05-24T00:00:21.488Z,20.30
2023-05-24T00:01:21.493Z,20.29
2023-05-24T00:02:21.458Z,20.29
2023-05-24T00:03:21.651Z,20.26
2023-05-24T00:04:21.554Z,20.23
2023-05-24T00:05:21.410Z,20.25
2023-05-24T00:06:21.458Z,20.25
2023-05-24T00:07:21.434Z,20.25
2023-05-24T00:08:21.405Z,20.25
2023-05-24T00:09:21.377Z,20.21
2023-05-24T00:10:21.387Z,20.20
2023-05-24T00:11:21.395Z,20.20
2023-05-24T00:12:21.404Z,20.10
2023-05-24T00:13:21.467Z,19.98
2023-05-24T00:14:21.474Z,20.05
2023-05-24T00:15:21.518Z,20.10
2023-05-24T00:16:21.560Z,20.04
2023-05-24T00:17:21.604Z,19.99
2023-05-24T00:18:21.659Z,20.05
2023-05-24T00:19:21.721Z,20.09
2023-05-24T00:20:21.774Z,20.11
2023-05-24T00:21:21.784Z,20.14
2023-05-24T00:22:21.849Z,20.14
2023-05-24T00:23:21.883Z,20.18
2023-05-24T00:24:21.937Z,20.19
2023-05-24T00:25:21.906Z,20.12
2023-05-24T00:26:22.013Z,20.11
2023-05-24T00:27:21.982Z,20.13
2023-05-24T00:28:22.012Z,20.16
2023-05-24T00:29:22.097Z,20.17
2023-05-24T00:30:22.134Z,20.11
2023-05-24T00:31:22.153Z,19.94
2023-05-24T00:32:22.171Z,19.88
2023-05-24T00:33:22.196Z,19.92
2023-05-24T00:34:22.235Z,19.94
2023-05-24T00:35:22.248Z,19.90
2023-05-24T00:36:22.339Z,19.80
2023-05-24T00:37:22.321Z,19.77
2023-05-24T00:38:22.356Z,19.69
2023-05-24T00:39:22.397Z,19.64
2023-05-24T00:40:22.418Z,19.67
2023-05-24T00:41:22.475Z,19.65
2023-05-24T00:42:22.505Z,19.55
2023-05-24T00:43:22.517Z,19.57
2023-05-24T00:44:22.566Z,19.59
2023-05-24T00:45:22.630Z,19.42
2023-05-24T00:46:22.792Z,19.41
2023-05-24T00:47:22.750Z,19.48
2023-05-24T00:48:22.709Z,19.39
2023-05-24T00:50:22.722Z,19.22
2023-05-24T00:51:22.725Z,19.18
2023-05-24T00:52:22.691Z,19.12
2023-05-24T00:53:22.706Z,19.11
2023-05-24T00:54:22.718Z,19.21
2023-05-24T00:55:22.690Z,19.29
2023-05-24T00:56:22.748Z,19.20
2023-05-24T00:57:22.725Z,19.17
2023-05-24T00:58:22.708Z,19.17
2023-05-24T00:59:22.696Z,19.20
2023-05-24T01:00:22.720Z,19.19
2023-05-24T01:01:22.751Z,19.18
2023-05-24T01:02:22.750Z,19.29
2023-05-24T01:03:22.893Z,19.34
2023-05-24T01:04:22.747Z,19.29
2023-05-24T01:05:22.708Z,19.26
2023-05-24T01:06:22.761Z,19.21
2023-05-24T01:07:22.776Z,19.21
2023-05-24T01:08:22.774Z,19.15
2023-05-24T01:09:22.734Z,19.26
2023-05-24T01:10:22.786Z,19.33
2023-05-24T01:11:22.792Z,19.20
2023-05-24T01:12:22.872Z,19.17
2023-05-24T01:13:22.837Z,19.24
2023-05-24T01:14:22.840Z,19.15
2023-05-24T01:15:22.835Z,19.15
2023-05-24T01:16:23.002Z,19.13
2023-05-24T01:17:22.840Z,19.02
2023-05-24T01:18:22.878Z,19.00
2023-05-24T01:19:22.878Z,18.99
2023-05-24T01:20:22.947Z,19.03
2023-05-24T01:21:22.964Z,19.01
2023-05-24T01:22:22.964Z,19.15
2023-05-24T01:23:22.951Z,19.27
2023-05-24T01:24:22.953Z,19.29
2023-05-24T01:25:22.987Z,19.30
2023-05-24T01:26:23.034Z,19.37
2023-05-24T01:27:23.006Z,19.43
2023-05-24T01:28:23.075Z,19.40
2023-05-24T01:29:23.053Z,19.34
2023-05-24T01:30:23.097Z,19.25
2023-05-24T01:31:23.201Z,19.26
2023-05-24T01:32:23.203Z,19.35
2023-05-24T01:33:23.135Z,19.41
2023-05-24T01:34:23.153Z,19.47
2023-05-24T01:35:23.124Z,19.54
2023-05-24T01:36:23.196Z,19.58
2023-05-24T01:37:23.191Z,19.61
2023-05-24T01:38:23.139Z,19.63
2023-05-24T01:39:23.185Z,19.63
2023-05-24T01:40:23.195Z,19.64
2023-05-24T01:41:23.206Z,19.66
2023-05-24T01:42:23.241Z,19.67
2023-05-24T01:43:23.214Z,19.67
2023-05-24T01:44:23.305Z,19.68
2023-05-24T01:45:23.274Z,19.68
2023-05-24T01:46:23.329Z,19.67
2023-05-24T01:47:23.358Z,19.54
2023-05-24T01:48:23.342Z,19.54
2023-05-24T01:49:23.327Z,19.45
2023-05-24T01:50:25.164Z,19.48
2023-05-24T01:51:23.467Z,19.51
2023-05-24T01:52:23.513Z,19.54
2023-05-24T01:53:23.530Z,19.57
2023-05-24T01:54:23.544Z,19.57
2023-05-24T01:55:23.596Z,19.57
2023-05-24T01:56:23.617Z,19.57
2023-05-24T01:57:23.630Z,19.58
2023-05-24T01:58:23.624Z,19.59
2023-05-24T01:59:23.661Z,19.56
2023-05-24T02:00:23.727Z,19.58
2023-05-24T02:01:23.818Z,19.59
2023-05-24T02:02:23.852Z,19.60
2023-05-24T02:03:23.799Z,19.60
2023-05-24T02:04:23.825Z,19.61
2023-05-24T02:05:23.829Z,19.59
2023-05-24T02:06:24.457Z,19.46
2023-05-24T02:07:23.939Z,19.46
2023-05-24T02:08:23.944Z,19.48
2023-05-24T02:09:23.988Z,19.52
2023-05-24T02:10:24.018Z,19.54
2023-05-24T02:11:24.083Z,19.55
2023-05-24T02:12:24.151Z,19.55
2023-05-24T02:13:24.171Z,19.49
2023-05-24T02:14:24.206Z,19.48
2023-05-24T02:15:24.252Z,19.49
2023-05-24T02:16:24.333Z,19.49
2023-05-24T02:17:24.310Z,19.48
2023-05-24T02:18:24.383Z,19.50
2023-05-24T02:19:24.395Z,19.51
2023-05-24T02:20:24.436Z,19.49
2023-05-24T02:21:24.508Z,19.48
2023-05-24T02:22:24.497Z,19.46
2023-05-24T02:23:24.553Z,19.47
2023-05-24T02:24:24.617Z,19.46
2023-05-24T02:25:24.640Z,19.44
2023-05-24T02:26:24.689Z,19.47
2023-05-24T02:27:24.743Z,19.47
2023-05-24T02:28:24.785Z,19.47
2023-05-24T02:29:24.821Z,19.47
2023-05-24T02:30:24.831Z,19.47
2023-05-24T02:31:24.927Z,19.46
2023-05-24T02:32:24.944Z,19.46
2023-05-24T02:33:24.989Z,19.47
2023-05-24T02:34:25.039Z,19.46
2023-05-24T02:35:25.081Z,19.46
2023-05-24T02:36:25.120Z,19.47
2023-05-24T02:37:25.178Z,19.46
2023-05-24T02:38:25.229Z,19.45
2023-05-24T02:39:25.293Z,19.45
2023-05-24T02:40:25.303Z,19.45
2023-05-24T02:41:25.406Z,19.45
2023-05-24T02:42:25.439Z,19.45
2023-05-24T02:43:25.467Z,19.46
2023-05-24T02:44:25.528Z,19.47
2023-05-24T02:45:25.564Z,19.47
2023-05-24T02:46:25.638Z,19.45
2023-05-24T02:47:25.628Z,19.46
2023-05-24T02:48:25.713Z,19.43
2023-05-24T02:49:25.704Z,19.24
2023-05-24T02:50:25.785Z,19.28
2023-05-24T02:51:25.888Z,19.31
2023-05-24T02:52:25.909Z,19.32
2023-05-24T02:53:25.962Z,19.32
2023-05-24T02:54:26.037Z,19.33
2023-05-24T02:55:26.064Z,19.34
2023-05-24T02:56:26.131Z,19.34
2023-05-24T02:57:26.178Z,19.35
2023-05-24T02:58:26.291Z,19.35
2023-05-24T02:59:26.283Z,19.33
2023-05-24T03:00:26.323Z,19.33
2023-05-24T03:01:26.415Z,19.33
2023-05-24T03:02:26.470Z,19.32
2023-05-24T03:03:26.581Z,19.33
2023-05-24T03:04:26.531Z,19.33
2023-05-24T03:05:26.617Z,19.33
2023-05-24T03:06:26.684Z,19.33
2023-05-24T03:07:26.728Z,19.31
2023-05-24T03:08:26.761Z,19.31
2023-05-24T03:09:26.968Z,19.32
2023-05-24T03:10:26.896Z,19.34
2023-05-24T03:11:26.910Z,19.34
2023-05-24T03:12:26.961Z,19.33
2023-05-24T03:13:27.029Z,19.33
2023-05-24T03:14:27.926Z,19.33
2023-05-24T03:15:27.197Z,19.34
2023-05-24T03:16:27.225Z,19.35
2023-05-24T03:17:27.315Z,19.36
2023-05-24T03:18:27.336Z,19.37
2023-05-24T03:19:27.376Z,19.37
2023-05-24T03:20:27.565Z,19.37
2023-05-24T03:21:27.484Z,19.36
2023-05-24T03:22:27.515Z,19.36
2023-05-24T03:23:27.591Z,19.38
2023-05-24T03:24:27.585Z,19.38
2023-05-24T03:25:27.666Z,19.38
2023-05-24T03:26:27.818Z,19.37
2023-05-24T03:27:27.815Z,19.38
2023-05-24T03:28:27.826Z,19.37
2023-05-24T03:29:27.894Z,19.37
2023-05-24T03:30:27.928Z,19.37
2023-05-24T03:31:28.016Z,19.35
2023-05-24T03:32:28.134Z,19.35
2023-05-24T03:33:28.143Z,19.34
2023-05-24T03:34:28.196Z,19.33
2023-05-24T03:35:28.243Z,19.32
2023-05-24T03:36:28.282Z,19.31
2023-05-24T03:37:28.345Z,19.32
2023-05-24T03:38:28.430Z,19.33
2023-05-24T03:39:28.438Z,19.33
2023-05-24T03:40:28.519Z,19.34
2023-05-24T03:41:28.610Z,19.21
2023-05-24T03:42:28.605Z,19.15
2023-05-24T03:43:28.675Z,19.12
2023-05-24T03:44:28.718Z,19.17
2023-05-24T03:45:38.529Z,19.11
2023-05-24T03:46:29.816Z,18.88
2023-05-24T03:47:28.793Z,18.71
2023-05-24T03:48:28.772Z,18.61
2023-05-24T03:49:28.765Z,18.55
2023-05-24T03:50:28.785Z,18.39
2023-05-24T03:51:28.768Z,18.32
2023-05-24T03:52:28.749Z,18.27
2023-05-24T03:53:28.745Z,18.25
2023-05-24T03:54:28.708Z,18.39
2023-05-24T03:55:28.722Z,18.47
2023-05-24T03:56:28.730Z,18.47
2023-05-24T03:57:28.692Z,18.40
2023-05-24T03:58:28.759Z,18.40
2023-05-24T03:59:28.687Z,18.37
2023-05-24T04:00:28.685Z,18.48
2023-05-24T04:01:34.199Z,18.48
2023-05-24T04:02:29.793Z,18.56
2023-05-24T04:03:28.739Z,18.66
2023-05-24T04:04:28.642Z,18.68
2023-05-24T04:05:28.648Z,18.62
2023-05-24T04:06:28.660Z,18.66
2023-05-24T04:07:28.642Z,18.73
2023-05-24T04:08:28.690Z,18.80
2023-05-24T04:09:28.603Z,18.87
2023-05-24T04:10:28.622Z,18.91
2023-05-24T04:11:28.756Z,18.95
2023-05-24T04:12:28.591Z,18.97
2023-05-24T04:13:28.614Z,18.99
2023-05-24T04:14:28.678Z,18.97
2023-05-24T04:15:28.684Z,18.95
2023-05-24T04:16:28.768Z,18.88
2023-05-24T04:17:28.920Z,18.81
2023-05-24T04:18:28.955Z,18.74
2023-05-24T04:19:28.873Z,18.61
2023-05-24T04:20:28.963Z,18.59
2023-05-24T04:21:28.971Z,18.49
2023-05-24T04:22:29.041Z,18.44
2023-05-24T04:23:29.066Z,18.39
2023-05-24T04:24:29.077Z,18.26
2023-05-24T04:25:29.074Z,18.20
2023-05-24T04:26:29.064Z,18.13
2023-05-24T04:27:29.099Z,18.06
2023-05-24T04:28:29.073Z,17.99
2023-05-24T04:29:29.073Z,18.00
2023-05-24T04:30:29.094Z,17.98
2023-05-24T04:31:29.543Z,18.00
2023-05-24T04:32:29.141Z,18.00
2023-05-24T04:33:29.083Z,17.96
2023-05-24T04:34:29.092Z,17.90
2023-05-24T04:35:29.128Z,18.06
2023-05-24T04:36:29.166Z,18.11
2023-05-24T04:37:29.161Z,18.11
2023-05-24T04:38:29.130Z,18.21
2023-05-24T04:39:29.179Z,18.14
2023-05-24T04:40:29.159Z,18.03
2023-05-24T04:41:29.195Z,18.01
2023-05-24T04:42:29.121Z,18.00
2023-05-24T04:43:29.158Z,17.91
2023-05-24T04:44:29.173Z,17.89
2023-05-24T04:45:29.199Z,17.86
2023-05-24T04:46:29.257Z,17.88
2023-05-24T04:47:29.226Z,17.90
2023-05-24T04:48:29.231Z,17.88
2023-05-24T04:49:29.250Z,17.90
2023-05-24T04:50:29.239Z,17.89
2023-05-24T04:51:29.270Z,18.02
2023-05-24T04:52:29.246Z,18.11
2023-05-24T04:53:29.280Z,18.08
2023-05-24T04:54:29.306Z,18.10
2023-05-24T04:55:29.306Z,18.08
2023-05-24T04:56:29.271Z,18.12
2023-05-24T04:57:29.300Z,18.25
2023-05-24T04:58:29.325Z,18.30
2023-05-24T04:59:29.294Z,18.32
2023-05-24T05:00:29.288Z,18.42
2023-05-24T05:01:29.428Z,18.50
2023-05-24T05:02:29.350Z,18.48
2023-05-24T05:03:29.441Z,18.56
2023-05-24T05:04:29.341Z,18.61
2023-05-24T05:05:29.361Z,18.52
2023-05-24T05:06:29.341Z,18.49
2023-05-24T05:07:29.344Z,18.40
2023-05-24T05:08:29.334Z,18.35
2023-05-24T05:09:29.373Z,18.29
2023-05-24T05:10:29.356Z,18.26
2023-05-24T05:11:29.386Z,18.24
2023-05-24T05:12:29.397Z,18.19
2023-05-24T05:13:29.376Z,18.14
2023-05-24T05:14:29.367Z,18.12
2023-05-24T05:15:29.455Z,18.14
2023-05-24T05:16:29.404Z,18.12
2023-05-24T05:17:29.415Z,18.04
2023-05-24T05:18:29.363Z,17.97
2023-05-24T05:19:29.414Z,17.92
2023-05-24T05:20:29.437Z,17.92
2023-05-24T05:21:29.463Z,17.97
2023-05-24T05:22:30.654Z,18.02
2023-05-24T05:23:29.453Z,18.05
2023-05-24T05:24:29.431Z,18.09
2023-05-24T05:25:29.481Z,18.12
2023-05-24T05:26:29.438Z,18.06
2023-05-24T05:27:29.456Z,18.15
2023-05-24T05:28:29.465Z,18.18
2023-05-24T05:29:29.497Z,18.31
2023-05-24T05:30:29.496Z,18.42
2023-05-24T05:31:29.528Z,18.48
2023-05-24T05:32:29.619Z,18.46
2023-05-24T05:33:29.576Z,18.53
2023-05-24T05:34:29.532Z,18.58
2023-05-24T05:35:29.518Z,18.64
2023-05-24T05:36:29.508Z,18.67
2023-05-24T05:37:29.521Z,18.72
2023-05-24T05:38:29.484Z,18.75
2023-05-24T05:39:29.506Z,18.78
2023-05-24T05:40:29.489Z,18.80
2023-05-24T05:41:29.581Z,18.80
2023-05-24T05:42:29.490Z,18.81
2023-05-24T05:43:29.560Z,18.82
2023-05-24T05:44:29.575Z,18.86
2023-05-24T05:45:29.530Z,18.88
2023-05-24T05:46:29.626Z,18.90
2023-05-24T05:47:29.567Z,18.93
2023-05-24T05:48:29.550Z,18.94
2023-05-24T05:49:29.555Z,18.87
2023-05-24T05:50:29.577Z,18.88
2023-05-24T05:51:29.569Z,18.88
2023-05-24T05:52:29.600Z,18.82
2023-05-24T05:53:29.612Z,18.80
2023-05-24T05:54:29.582Z,18.83
2023-05-24T05:55:29.618Z,18.77
2023-05-24T05:56:29.612Z,18.75
2023-05-24T05:57:29.586Z,18.80
2023-05-24T05:58:29.613Z,18.73
2023-05-24T05:59:29.630Z,18.61
2023-05-24T06:00:29.694Z,18.62
2023-05-24T06:01:29.667Z,18.68
2023-05-24T06:02:29.748Z,18.68
2023-05-24T06:03:29.868Z,18.62
2023-05-24T06:04:29.737Z,18.59
2023-05-24T06:05:29.709Z,18.64
2023-05-24T06:06:29.710Z,18.72
2023-05-24T06:07:29.702Z,18.71
2023-05-24T06:08:29.706Z,18.54
2023-05-24T06:09:29.738Z,18.47
2023-05-24T06:10:29.822Z,18.42
2023-05-24T06:11:29.720Z,18.51
2023-05-24T06:12:29.821Z,18.51
2023-05-24T06:13:29.708Z,18.52
2023-05-24T06:14:29.777Z,18.46
2023-05-24T06:15:29.677Z,18.39
2023-05-24T06:16:29.784Z,18.31
2023-05-24T06:17:29.777Z,18.30
2023-05-24T06:18:29.704Z,18.27
2023-05-24T06:19:29.708Z,18.24
2023-05-24T06:20:29.831Z,18.22
2023-05-24T06:21:29.733Z,18.19
2023-05-24T06:22:29.715Z,18.17
2023-05-24T06:23:29.703Z,18.16
2023-05-24T06:24:29.733Z,18.21
2023-05-24T06:25:29.725Z,18.28
2023-05-24T06:26:29.717Z,18.26
2023-05-24T06:27:29.716Z,18.28
2023-05-24T06:28:29.731Z,18.21
2023-05-24T06:29:29.702Z,18.31
2023-05-24T06:30:29.814Z,18.35
2023-05-24T06:31:29.800Z,18.32
2023-05-24T06:32:29.789Z,18.22
2023-05-24T06:33:29.745Z,18.33
2023-05-24T06:34:29.763Z,18.38
2023-05-24T06:35:29.744Z,18.34
2023-05-24T06:36:29.859Z,18.33
2023-05-24T06:37:29.741Z,18.23
2023-05-24T06:38:29.806Z,18.16
2023-05-24T06:39:29.775Z,18.13
2023-05-24T06:40:29.802Z,18.20
2023-05-24T06:41:29.824Z,18.18
2023-05-24T06:42:29.793Z,18.16
2023-05-24T06:43:29.819Z,18.09
2023-05-24T06:44:29.818Z,18.10
2023-05-24T06:45:29.833Z,18.13
2023-05-24T06:46:29.878Z,18.13
2023-05-24T06:47:30.091Z,18.21
2023-05-24T06:48:29.936Z,18.25
2023-05-24T06:49:29.943Z,18.26
2023-05-24T06:50:29.834Z,18.26
2023-05-24T06:51:29.857Z,18.19
2023-05-24T06:52:29.898Z,18.17
2023-05-24T06:53:29.873Z,18.16
2023-05-24T06:54:29.877Z,18.12
2023-05-24T06:55:29.921Z,18.11
2023-05-24T06:56:29.908Z,18.16
2023-05-24T06:57:29.907Z,18.19
2023-05-24T06:58:29.913Z,18.22
2023-05-24T06:59:29.945Z,18.21
2023-05-24T07:00:29.933Z,18.15
2023-05-24T07:01:30.149Z,18.14
2023-05-24T07:02:30.015Z,18.16
2023-05-24T07:03:29.948Z,18.22
2023-05-24T07:04:30.019Z,18.33
2023-05-24T07:05:29.969Z,18.41
2023-05-24T07:06:29.965Z,18.40
2023-05-24T07:07:29.969Z,18.41
2023-05-24T07:08:29.939Z,18.41
2023-05-24T07:09:29.968Z,18.49
2023-05-24T07:10:29.988Z,18.56
2023-05-24T07:11:30.057Z,18.47
2023-05-24T07:12:30.016Z,18.40
2023-05-24T07:13:30.101Z,18.36
2023-05-24T07:14:30.097Z,18.35
2023-05-24T07:15:30.189Z,18.41
2023-05-24T07:16:30.285Z,18.44
2023-05-24T07:17:30.273Z,18.37
2023-05-24T07:18:30.332Z,18.36
2023-05-24T07:19:30.376Z,18.49
2023-05-24T07:20:30.455Z,18.61
2023-05-24T07:21:30.494Z,18.73
2023-05-24T07:22:30.512Z,18.73
2023-05-24T07:23:30.656Z,18.76
2023-05-24T07:24:30.675Z,18.76
2023-05-24T07:25:30.714Z,18.75
2023-05-24T07:26:30.781Z,18.75
2023-05-24T07:27:30.816Z,18.73
2023-05-24T07:28:30.892Z,18.73
2023-05-24T07:29:30.960Z,18.64
2023-05-24T07:30:32.497Z,18.64
2023-05-24T07:31:31.193Z,18.64
2023-05-24T07:32:31.198Z,18.56
2023-05-24T07:33:31.221Z,18.54
2023-05-24T07:34:31.264Z,18.54
2023-05-24T07:35:31.391Z,18.53
2023-05-24T07:36:34.534Z,18.45
2023-05-24T07:37:31.381Z,18.41
2023-05-24T07:38:31.338Z,18.47
2023-05-24T07:39:31.318Z,18.52
2023-05-24T07:40:31.293Z,18.48
2023-05-24T07:41:31.306Z,18.54
2023-05-24T07:42:31.293Z,18.59
2023-05-24T07:43:31.275Z,18.56
2023-05-24T07:44:31.302Z,18.42
2023-05-24T07:45:31.303Z,18.40
2023-05-24T07:46:31.335Z,18.40
2023-05-24T07:47:31.250Z,18.34
2023-05-24T07:48:31.256Z,18.41
2023-05-24T07:49:31.250Z,18.48
2023-05-24T07:50:31.206Z,18.53
2023-05-24T07:51:31.231Z,18.55
2023-05-24T07:52:31.211Z,18.58
2023-05-24T07:53:31.220Z,18.56
2023-05-24T07:54:31.203Z,18.57
2023-05-24T07:55:31.260Z,18.56
2023-05-24T07:56:31.189Z,18.58
2023-05-24T07:57:31.489Z,18.64
2023-05-24T07:58:31.172Z,18.63
2023-05-24T07:59:31.161Z,18.63
2023-05-24T08:00:31.144Z,18.57
2023-05-24T08:01:31.157Z,18.60
2023-05-24T08:02:31.169Z,18.62
2023-05-24T08:03:31.170Z,18.56
2023-05-24T08:04:31.131Z,18.59
2023-05-24T08:05:31.148Z,18.74
2023-05-24T08:06:31.156Z,18.94
2023-05-24T08:07:31.087Z,19.03
2023-05-24T08:08:31.211Z,19.02
2023-05-24T08:09:31.072Z,19.09
2023-05-24T08:10:32.030Z,19.11
2023-05-24T08:11:31.105Z,19.15
2023-05-24T08:12:31.051Z,19.11
2023-05-24T08:13:31.065Z,19.08
2023-05-24T08:14:31.031Z,19.03
2023-05-24T08:15:31.112Z,18.98
2023-05-24T08:16:31.091Z,18.90
2023-05-24T08:17:31.048Z,18.88
2023-05-24T08:18:31.005Z,18.81
2023-05-24T08:19:31.019Z,18.79
2023-05-24T08:20:31.073Z,18.79
2023-05-24T08:21:31.070Z,18.80
2023-05-24T08:22:30.993Z,18.83
2023-05-24T08:23:30.996Z,18.86
2023-05-24T08:24:30.964Z,19.00
2023-05-24T08:25:30.973Z,19.07
2023-05-24T08:26:30.982Z,19.11
2023-05-24T08:27:31.023Z,19.08
2023-05-24T08:28:31.063Z,19.17
2023-05-24T08:29:30.959Z,19.26
2023-05-24T08:30:30.947Z,19.37
2023-05-24T08:31:31.129Z,19.45
2023-05-24T08:32:31.027Z,19.49
2023-05-24T08:33:31.030Z,19.57
2023-05-24T08:34:31.046Z,19.63
2023-05-24T08:35:31.049Z,19.57
2023-05-24T08:36:31.072Z,19.55
2023-05-24T08:37:31.006Z,19.60
2023-05-24T08:38:31.039Z,19.64
2023-05-24T08:39:31.082Z,19.67
2023-05-24T08:40:31.025Z,19.66
2023-05-24T08:41:31.051Z,19.63
2023-05-24T08:42:31.035Z,19.58
2023-05-24T08:43:32.831Z,19.55
2023-05-24T08:44:31.031Z,19.56
2023-05-24T08:45:31.071Z,19.50
2023-05-24T08:46:31.105Z,19.48
2023-05-24T08:47:31.162Z,19.50
2023-05-24T08:48:31.275Z,19.51
2023-05-24T08:49:33.700Z,19.54
2023-05-24T08:50:31.107Z,19.53
2023-05-24T08:51:31.159Z,19.53
2023-05-24T08:52:31.137Z,19.53
2023-05-24T08:53:31.110Z,19.53
2023-05-24T08:54:31.319Z,19.55
2023-05-24T08:55:33.088Z,19.55
2023-05-24T08:56:31.102Z,19.56
2023-05-24T08:57:31.101Z,19.53
2023-05-24T08:58:31.097Z,19.47
2023-05-24T08:59:31.078Z,19.48
2023-05-24T09:00:31.134Z,19.51
2023-05-24T09:01:33.294Z,19.39
2023-05-24T09:02:31.086Z,19.35
2023-05-24T09:03:31.177Z,19.38
2023-05-24T09:04:31.089Z,19.34
2023-05-24T09:05:31.055Z,19.31
2023-05-24T09:06:31.069Z,19.32
2023-05-24T09:07:33.063Z,19.33
2023-05-24T09:08:31.129Z,19.36
2023-05-24T09:09:31.005Z,19.36
2023-05-24T09:10:41.223Z,19.38
2023-05-24T09:11:32.084Z,19.40
2023-05-24T09:13:31.021Z,19.46
2023-05-24T09:14:31.067Z,19.49
2023-05-24T09:15:31.023Z,19.52
2023-05-24T09:16:31.635Z,19.54
2023-05-24T09:17:33.428Z,19.51
2023-05-24T09:18:30.979Z,19.51
2023-05-24T09:19:30.980Z,19.51
2023-05-24T09:20:31.093Z,19.50
2023-05-24T09:21:31.084Z,19.48
2023-05-24T09:22:31.055Z,19.51
2023-05-24T09:23:30.987Z,19.60
2023-05-24T09:24:30.908Z,19.57
2023-05-24T09:25:30.920Z,19.57
2023-05-24T09:26:31.069Z,19.55
2023-05-24T09:27:31.043Z,19.55
2023-05-24T09:28:31.011Z,19.53
2023-05-24T09:29:30.955Z,19.61
2023-05-24T09:30:30.925Z,19.59
2023-05-24T09:31:31.128Z,19.50
2023-05-24T09:32:30.912Z,19.56
2023-05-24T09:33:30.931Z,19.58
2023-05-24T09:34:30.865Z,19.67
2023-05-24T09:35:30.883Z,19.66
2023-05-24T09:36:31.116Z,19.73
2023-05-24T09:37:32.714Z,19.75
2023-05-24T09:38:30.874Z,19.73
2023-05-24T09:39:30.835Z,19.67
2023-05-24T09:40:30.891Z,19.68
2023-05-24T09:41:30.917Z,19.73
2023-05-24T09:42:30.987Z,19.82
2023-05-24T09:43:31.034Z,19.88
2023-05-24T09:44:31.120Z,19.94
2023-05-24T09:45:31.140Z,19.95
2023-05-24T09:46:31.285Z,19.88
2023-05-24T09:47:31.281Z,19.82
2023-05-24T09:48:31.297Z,19.84
2023-05-24T09:49:31.342Z,19.89
2023-05-24T09:50:31.355Z,19.89
2023-05-24T09:51:31.667Z,19.91
2023-05-24T09:52:32.598Z,19.88
2023-05-24T09:53:31.437Z,19.86
2023-05-24T09:54:31.594Z,19.90
2023-05-24T09:55:31.620Z,19.91
2023-05-24T09:56:31.646Z,19.88
2023-05-24T09:57:31.671Z,19.87
2023-05-24T09:58:31.797Z,19.94
2023-05-24T09:59:31.776Z,20.00
2023-05-24T10:00:31.901Z,20.07
2023-05-24T10:01:32.017Z,20.23
2023-05-24T10:02:41.624Z,20.37
2023-05-24T10:03:32.917Z,20.46
2023-05-24T10:04:31.892Z,20.58
2023-05-24T10:05:31.873Z,20.64
2023-05-24T10:06:31.881Z,20.70
2023-05-24T10:07:31.896Z,20.76
2023-05-24T10:08:32.063Z,20.78
2023-05-24T10:09:31.863Z,20.72
2023-05-24T10:10:31.921Z,20.57
2023-05-24T10:11:31.873Z,20.54
2023-05-24T10:12:31.821Z,20.52
2023-05-24T10:13:31.821Z,20.48
2023-05-24T10:14:32.662Z,20.39
2023-05-24T10:15:31.784Z,20.39
2023-05-24T10:16:31.871Z,20.37
2023-05-24T10:17:31.993Z,20.36
2023-05-24T10:18:31.983Z,20.31
2023-05-24T10:19:31.961Z,20.30
2023-05-24T10:20:32.047Z,20.30
2023-05-24T10:21:32.124Z,20.20
2023-05-24T10:22:32.149Z,20.13
2023-05-24T10:23:32.249Z,20.13
2023-05-24T10:24:32.251Z,20.15
2023-05-24T10:25:32.304Z,20.16
2023-05-24T10:26:32.381Z,20.16
2023-05-24T10:27:32.380Z,20.13
2023-05-24T10:28:32.397Z,20.09
2023-05-24T10:29:32.476Z,20.02
2023-05-24T10:30:32.515Z,19.99
2023-05-24T10:31:32.546Z,19.98
2023-05-24T10:32:32.683Z,19.89
2023-05-24T10:33:32.606Z,19.93
2023-05-24T10:34:32.654Z,19.95
2023-05-24T10:35:32.709Z,19.96
2023-05-24T10:36:32.714Z,19.99
2023-05-24T10:37:32.882Z,19.99
2023-05-24T10:38:32.820Z,19.85
2023-05-24T10:39:32.841Z,19.75
2023-05-24T10:40:32.944Z,19.68
2023-05-24T10:41:32.934Z,19.64
2023-05-24T10:42:32.935Z,19.70
2023-05-24T10:43:32.989Z,19.68
2023-05-24T10:44:32.993Z,19.70
2023-05-24T10:45:33.021Z,19.79
2023-05-24T10:46:33.225Z,19.85
2023-05-24T10:47:33.156Z,19.92
2023-05-24T10:48:33.175Z,19.90
2023-05-24T10:49:33.249Z,19.85
2023-05-24T10:50:33.627Z,19.78
2023-05-24T10:51:33.349Z,19.83
2023-05-24T10:52:33.374Z,19.80
2023-05-24T10:53:33.350Z,19.75
2023-05-24T10:54:33.358Z,19.73
2023-05-24T10:55:33.541Z,19.69
2023-05-24T10:56:33.471Z,19.63
2023-05-24T10:57:33.486Z,19.58
2023-05-24T10:58:33.523Z,19.57
2023-05-24T10:59:33.610Z,19.58
2023-05-24T11:00:48.293Z,19.57
2023-05-24T11:01:34.714Z,19.60
2023-05-24T11:02:33.666Z,19.67
2023-05-24T11:03:33.623Z,19.69
2023-05-24T11:04:33.610Z,19.68
2023-05-24T11:05:33.657Z,19.71
2023-05-24T11:06:33.610Z,19.74
2023-05-24T11:07:33.641Z,19.77
2023-05-24T11:08:33.688Z,19.79
2023-05-24T11:09:33.602Z,19.77
2023-05-24T11:10:33.566Z,19.77
2023-05-24T11:11:34.188Z,19.82
2023-05-24T11:12:33.662Z,19.82
2023-05-24T11:13:33.678Z,19.82
2023-05-24T11:14:33.691Z,19.84
2023-05-24T11:15:33.742Z,19.86
2023-05-24T11:16:34.226Z,19.78
2023-05-24T11:17:33.809Z,19.81
2023-05-24T11:18:33.846Z,19.82
2023-05-24T11:19:33.840Z,19.87
2023-05-24T11:20:33.881Z,19.88
2023-05-24T11:21:34.130Z,19.88
2023-05-24T11:22:33.932Z,19.80
2023-05-24T11:23:35.991Z,19.77
2023-05-24T11:24:33.939Z,19.69
2023-05-24T11:25:33.964Z,19.65
2023-05-24T11:26:34.174Z,19.63
2023-05-24T11:27:33.934Z,19.59
2023-05-24T11:28:33.961Z,19.52
2023-05-24T11:29:35.978Z,19.49
2023-05-24T11:30:33.916Z,19.46
2023-05-24T11:31:34.206Z,19.41
2023-05-24T11:32:33.925Z,19.43
2023-05-24T11:33:33.898Z,19.43
2023-05-24T11:34:33.901Z,19.45
2023-05-24T11:35:33.921Z,19.48
2023-05-24T11:36:33.939Z,19.47
2023-05-24T11:37:45.491Z,19.42
2023-05-24T11:38:34.902Z,19.47
2023-05-24T11:39:33.899Z,19.54
2023-05-24T11:40:33.885Z,19.56
2023-05-24T11:41:33.877Z,19.60
2023-05-24T11:42:33.861Z,19.63
2023-05-24T11:43:33.828Z,19.50
2023-05-24T11:44:33.843Z,19.45
2023-05-24T11:45:33.878Z,19.39
2023-05-24T11:46:34.126Z,19.41
2023-05-24T11:47:33.865Z,19.44
2023-05-24T11:48:33.838Z,19.41
2023-05-24T11:49:33.803Z,19.40
2023-05-24T11:51:33.831Z,19.31
2023-05-24T11:52:33.798Z,19.27
2023-05-24T11:53:33.783Z,19.25
2023-05-24T11:54:33.761Z,19.23
2023-05-24T11:55:33.792Z,19.22
2023-05-24T11:56:34.254Z,19.22
2023-05-24T11:57:33.840Z,19.18
2023-05-24T11:58:33.899Z,19.18
2023-05-24T11:59:33.909Z,19.18
2023-05-24T12:00:33.935Z,19.16
2023-05-24T12:01:33.990Z,19.11
2023-05-24T12:02:34.045Z,19.17
2023-05-24T12:03:34.290Z,19.20
2023-05-24T12:04:34.191Z,19.18
2023-05-24T12:05:34.197Z,19.19
2023-05-24T12:06:34.638Z,19.16
2023-05-24T12:07:34.321Z,19.10
2023-05-24T12:08:34.339Z,19.07
2023-05-24T12:09:34.392Z,19.10
2023-05-24T12:10:34.439Z,19.13
2023-05-24T12:11:34.693Z,19.13
2023-05-24T12:12:45.399Z,19.12
2023-05-24T12:13:35.483Z,19.07
2023-05-24T12:14:34.685Z,19.03
2023-05-24T12:15:34.516Z,19.01
2023-05-24T12:16:34.467Z,19.00
2023-05-24T12:17:34.490Z,19.00
2023-05-24T12:18:34.422Z,18.96
2023-05-24T12:19:34.426Z,18.96
2023-05-24T12:20:34.591Z,18.97
2023-05-24T12:21:34.414Z,18.99
2023-05-24T12:22:34.414Z,19.02
2023-05-24T12:23:34.394Z,19.03
2023-05-24T12:24:34.468Z,19.03
2023-05-24T12:25:34.515Z,19.03
2023-05-24T12:26:34.449Z,19.02
2023-05-24T12:27:34.507Z,19.02
2023-05-24T12:28:34.512Z,19.01
2023-05-24T12:29:34.566Z,19.02
2023-05-24T12:30:34.608Z,19.01
2023-05-24T12:31:34.627Z,19.00
2023-05-24T12:32:34.582Z,18.99
2023-05-24T12:33:34.630Z,19.01
2023-05-24T12:34:34.632Z,19.01
2023-05-24T12:35:34.633Z,19.02
2023-05-24T12:36:34.643Z,19.01
2023-05-24T12:37:34.642Z,18.98
2023-05-24T12:38:34.600Z,18.93
2023-05-24T12:39:34.708Z,18.81
2023-05-24T12:40:34.660Z,18.72
2023-05-24T12:41:34.692Z,18.61
2023-05-24T12:42:34.831Z,18.45
2023-05-24T12:43:34.768Z,18.44
2023-05-24T12:44:34.797Z,18.39
2023-05-24T12:45:34.852Z,18.34
2023-05-24T12:46:34.852Z,18.40
2023-05-24T12:47:35.231Z,18.51
2023-05-24T12:48:34.887Z,18.53
2023-05-24T12:49:34.900Z,18.46
2023-05-24T12:50:34.946Z,18.41
2023-05-24T12:51:34.987Z,18.35
2023-05-24T12:52:35.057Z,18.35
2023-05-24T12:53:35.072Z,18.40
2023-05-24T12:54:35.085Z,18.44
2023-05-24T12:55:35.064Z,18.49